sensor_id;sensor_type;location;lat;lon;timestamp;temperature;humidity
64062;DHT22;50308;47.438;-1.528;2023-02-01T00:01:12;10.30;84.80
64062;DHT22;50308;47.438;-1.528;2023-02-01T00:03:38;10.30;85.10
64062;DHT22;50308;47.438;-1.528;2023-02-01T00:06:08;10.30;84.90
64062;DHT22;50308;47.438;-1.528;2023-02-01T00:08:37;10.30;84.90
64062;DHT22;50308;47.438;-1.528;2023-02-01T00:11:04;10.30;84.80
64062;DHT22;50308;47.438;-1.528;2023-02-01T00:13:37;10.40;84.70
64062;DHT22;50308;47.438;-1.528;2023-02-01T00:16:05;10.40;84.70
64062;DHT22;50308;47.438;-1.528;2023-02-01T00:18:31;10.30;84.80
64062;DHT22;50308;47.438;-1.528;2023-02-01T00:20:57;10.30;84.70
64062;DHT22;50308;47.438;-1.528;2023-02-01T00:23:23;10.30;84.90
64062;DHT22;50308;47.438;-1.528;2023-02-01T00:25:53;10.30;84.80
64062;DHT22;50308;47.438;-1.528;2023-02-01T00:28:24;10.40;85.20
64062;DHT22;50308;47.438;-1.528;2023-02-01T00:31:00;10.40;84.70
64062;DHT22;50308;47.438;-1.528;2023-02-01T00:33:27;10.40;84.60
64062;DHT22;50308;47.438;-1.528;2023-02-01T00:35:59;10.40;85.70
64062;DHT22;50308;47.438;-1.528;2023-02-01T00:38:27;10.40;84.80
64062;DHT22;50308;47.438;-1.528;2023-02-01T00:41:03;10.40;85.20
64062;DHT22;50308;47.438;-1.528;2023-02-01T00:43:30;10.40;84.70
64062;DHT22;50308;47.438;-1.528;2023-02-01T00:46:05;10.40;85.70
64062;DHT22;50308;47.438;-1.528;2023-02-01T00:48:31;10.40;85.70
64062;DHT22;50308;47.438;-1.528;2023-02-01T00:51:01;10.40;84.70
64062;DHT22;50308;47.438;-1.528;2023-02-01T00:53:27;10.50;84.70
64062;DHT22;50308;47.438;-1.528;2023-02-01T00:55:53;10.50;84.80
64062;DHT22;50308;47.438;-1.528;2023-02-01T00:58:18;10.50;84.80
64062;DHT22;50308;47.438;-1.528;2023-02-01T01:00:44;10.50;84.60
64062;DHT22;50308;47.438;-1.528;2023-02-01T01:03:10;10.50;85.50
64062;DHT22;50308;47.438;-1.528;2023-02-01T01:05:45;10.50;86.40
64062;DHT22;50308;47.438;-1.528;2023-02-01T01:08:11;10.50;84.90
64062;DHT22;50308;47.438;-1.528;2023-02-01T01:10:36;10.50;85.70
64062;DHT22;50308;47.438;-1.528;2023-02-01T01:13:02;10.50;87.00
64062;DHT22;50308;47.438;-1.528;2023-02-01T01:15:27;10.50;86.30
64062;DHT22;50308;47.438;-1.528;2023-02-01T01:17:53;10.50;85.50
64062;DHT22;50308;47.438;-1.528;2023-02-01T01:20:19;10.50;86.60
64062;DHT22;50308;47.438;-1.528;2023-02-01T01:22:47;10.50;85.90
64062;DHT22;50308;47.438;-1.528;2023-02-01T01:25:13;10.50;85.00
64062;DHT22;50308;47.438;-1.528;2023-02-01T01:27:39;10.50;84.90
64062;DHT22;50308;47.438;-1.528;2023-02-01T01:30:05;10.50;85.80
64062;DHT22;50308;47.438;-1.528;2023-02-01T01:32:31;10.50;85.10
64062;DHT22;50308;47.438;-1.528;2023-02-01T01:34:57;10.50;84.90
64062;DHT22;50308;47.438;-1.528;2023-02-01T01:37:22;10.50;85.10
64062;DHT22;50308;47.438;-1.528;2023-02-01T01:39:48;10.50;85.90
64062;DHT22;50308;47.438;-1.528;2023-02-01T01:42:15;10.50;85.40
64062;DHT22;50308;47.438;-1.528;2023-02-01T01:44:57;10.50;85.00
64062;DHT22;50308;47.438;-1.528;2023-02-01T01:47:23;10.60;85.00
64062;DHT22;50308;47.438;-1.528;2023-02-01T01:49:49;10.50;85.50
64062;DHT22;50308;47.438;-1.528;2023-02-01T01:52:15;10.60;84.80
64062;DHT22;50308;47.438;-1.528;2023-02-01T01:54:42;10.50;85.20
64062;DHT22;50308;47.438;-1.528;2023-02-01T01:57:10;10.50;84.80
64062;DHT22;50308;47.438;-1.528;2023-02-01T01:59:37;10.50;84.80
64062;DHT22;50308;47.438;-1.528;2023-02-01T02:02:03;10.60;84.90
64062;DHT22;50308;47.438;-1.528;2023-02-01T02:04:29;10.50;85.00
64062;DHT22;50308;47.438;-1.528;2023-02-01T02:07:00;10.60;85.10
64062;DHT22;50308;47.438;-1.528;2023-02-01T02:09:30;10.60;85.10
64062;DHT22;50308;47.438;-1.528;2023-02-01T02:11:56;10.50;85.00
64062;DHT22;50308;47.438;-1.528;2023-02-01T02:14:22;10.50;85.00
64062;DHT22;50308;47.438;-1.528;2023-02-01T02:16:58;10.50;85.70
64062;DHT22;50308;47.438;-1.528;2023-02-01T02:24:31;10.50;85.60
64062;DHT22;50308;47.438;-1.528;2023-02-01T02:27:05;10.50;85.40
64062;DHT22;50308;47.438;-1.528;2023-02-01T02:34:58;10.50;85.50
64062;DHT22;50308;47.438;-1.528;2023-02-01T02:37:43;10.50;85.80
64062;DHT22;50308;47.438;-1.528;2023-02-01T02:40:15;10.50;85.60
64062;DHT22;50308;47.438;-1.528;2023-02-01T02:45:37;10.50;86.20
64062;DHT22;50308;47.438;-1.528;2023-02-01T02:48:43;10.50;85.40
64062;DHT22;50308;47.438;-1.528;2023-02-01T02:51:11;10.50;86.20
64062;DHT22;50308;47.438;-1.528;2023-02-01T02:54:10;10.50;85.70
64062;DHT22;50308;47.438;-1.528;2023-02-01T02:56:56;10.50;85.60
64062;DHT22;50308;47.438;-1.528;2023-02-01T02:59:42;10.40;85.60
64062;DHT22;50308;47.438;-1.528;2023-02-01T03:02:26;10.40;85.90
64062;DHT22;50308;47.438;-1.528;2023-02-01T03:05:11;10.40;86.10
64062;DHT22;50308;47.438;-1.528;2023-02-01T03:07:49;10.40;86.10
64062;DHT22;50308;47.438;-1.528;2023-02-01T03:10:41;10.40;85.90
64062;DHT22;50308;47.438;-1.528;2023-02-01T03:13:06;10.40;85.60
64062;DHT22;50308;47.438;-1.528;2023-02-01T03:15:36;10.40;85.60
64062;DHT22;50308;47.438;-1.528;2023-02-01T03:18:06;10.30;85.90
64062;DHT22;50308;47.438;-1.528;2023-02-01T03:20:32;10.30;86.20
64062;DHT22;50308;47.438;-1.528;2023-02-01T03:22:58;10.30;86.10
64062;DHT22;50308;47.438;-1.528;2023-02-01T03:25:25;10.30;85.90
64062;DHT22;50308;47.438;-1.528;2023-02-01T03:27:53;10.40;85.70
64062;DHT22;50308;47.438;-1.528;2023-02-01T03:30:23;10.30;85.70
64062;DHT22;50308;47.438;-1.528;2023-02-01T03:32:51;10.30;85.50
64062;DHT22;50308;47.438;-1.528;2023-02-01T03:38:14;10.30;85.70
64062;DHT22;50308;47.438;-1.528;2023-02-01T03:40:43;10.10;85.20
64062;DHT22;50308;47.438;-1.528;2023-02-01T03:43:11;10.20;85.70
64062;DHT22;50308;47.438;-1.528;2023-02-01T03:45:41;10.20;85.70
64062;DHT22;50308;47.438;-1.528;2023-02-01T03:48:08;10.20;85.50
64062;DHT22;50308;47.438;-1.528;2023-02-01T03:50:35;10.10;85.60
64062;DHT22;50308;47.438;-1.528;2023-02-01T03:53:21;10.10;85.80
64062;DHT22;50308;47.438;-1.528;2023-02-01T03:55:48;10.20;85.80
64062;DHT22;50308;47.438;-1.528;2023-02-01T03:58:16;10.20;85.80
64062;DHT22;50308;47.438;-1.528;2023-02-01T04:00:46;10.20;85.70
64062;DHT22;50308;47.438;-1.528;2023-02-01T04:03:15;10.30;85.50
64062;DHT22;50308;47.438;-1.528;2023-02-01T04:05:41;10.30;85.40
64062;DHT22;50308;47.438;-1.528;2023-02-01T04:08:06;10.30;85.30
64062;DHT22;50308;47.438;-1.528;2023-02-01T04:10:32;10.30;85.10
64062;DHT22;50308;47.438;-1.528;2023-02-01T04:12:58;10.30;85.10
64062;DHT22;50308;47.438;-1.528;2023-02-01T04:15:24;10.30;85.00
64062;DHT22;50308;47.438;-1.528;2023-02-01T04:17:53;10.30;84.80
64062;DHT22;50308;47.438;-1.528;2023-02-01T04:20:19;10.30;84.80
64062;DHT22;50308;47.438;-1.528;2023-02-01T04:22:44;10.30;84.80
64062;DHT22;50308;47.438;-1.528;2023-02-01T04:25:11;10.30;84.80
64062;DHT22;50308;47.438;-1.528;2023-02-01T04:27:37;10.30;84.80
64062;DHT22;50308;47.438;-1.528;2023-02-01T04:30:03;10.30;84.70
64062;DHT22;50308;47.438;-1.528;2023-02-01T04:32:28;10.30;84.80
64062;DHT22;50308;47.438;-1.528;2023-02-01T04:34:54;10.30;84.40
64062;DHT22;50308;47.438;-1.528;2023-02-01T04:37:23;10.30;85.60
64062;DHT22;50308;47.438;-1.528;2023-02-01T04:39:49;10.30;84.50
64062;DHT22;50308;47.438;-1.528;2023-02-01T04:42:15;10.30;84.60
64062;DHT22;50308;47.438;-1.528;2023-02-01T04:44:41;10.30;84.50
64062;DHT22;50308;47.438;-1.528;2023-02-01T04:47:07;10.30;84.40
64062;DHT22;50308;47.438;-1.528;2023-02-01T04:49:33;10.30;84.30
64062;DHT22;50308;47.438;-1.528;2023-02-01T04:51:59;10.30;84.30
64062;DHT22;50308;47.438;-1.528;2023-02-01T04:54:25;10.30;84.20
64062;DHT22;50308;47.438;-1.528;2023-02-01T04:56:50;10.30;84.20
64062;DHT22;50308;47.438;-1.528;2023-02-01T04:59:16;10.30;83.90
64062;DHT22;50308;47.438;-1.528;2023-02-01T05:01:42;10.30;83.80
64062;DHT22;50308;47.438;-1.528;2023-02-01T05:04:08;10.30;84.00
64062;DHT22;50308;47.438;-1.528;2023-02-01T05:06:34;10.30;83.70
64062;DHT22;50308;47.438;-1.528;2023-02-01T05:08:59;10.30;83.90
64062;DHT22;50308;47.438;-1.528;2023-02-01T05:11:25;10.30;84.20
64062;DHT22;50308;47.438;-1.528;2023-02-01T05:14:09;10.30;83.80
64062;DHT22;50308;47.438;-1.528;2023-02-01T05:16:35;10.20;83.50
64062;DHT22;50308;47.438;-1.528;2023-02-01T05:19:01;10.20;84.10
64062;DHT22;50308;47.438;-1.528;2023-02-01T05:21:27;10.20;84.20
64062;DHT22;50308;47.438;-1.528;2023-02-01T05:23:55;10.20;84.20
64062;DHT22;50308;47.438;-1.528;2023-02-01T05:26:45;10.30;84.20
64062;DHT22;50308;47.438;-1.528;2023-02-01T05:29:11;10.30;84.00
64062;DHT22;50308;47.438;-1.528;2023-02-01T05:31:37;10.30;83.80
64062;DHT22;50308;47.438;-1.528;2023-02-01T05:34:02;10.20;83.90
64062;DHT22;50308;47.438;-1.528;2023-02-01T05:36:34;10.20;84.00
64062;DHT22;50308;47.438;-1.528;2023-02-01T05:38:59;10.20;84.20
64062;DHT22;50308;47.438;-1.528;2023-02-01T05:41:25;10.20;83.90
64062;DHT22;50308;47.438;-1.528;2023-02-01T05:43:51;10.30;84.10
64062;DHT22;50308;47.438;-1.528;2023-02-01T05:46:16;10.20;83.70
64062;DHT22;50308;47.438;-1.528;2023-02-01T05:48:42;10.20;84.10
64062;DHT22;50308;47.438;-1.528;2023-02-01T05:51:08;10.10;83.90
64062;DHT22;50308;47.438;-1.528;2023-02-01T05:53:34;10.20;84.50
64062;DHT22;50308;47.438;-1.528;2023-02-01T05:56:00;10.20;84.20
64062;DHT22;50308;47.438;-1.528;2023-02-01T05:58:26;10.20;84.10
64062;DHT22;50308;47.438;-1.528;2023-02-01T06:00:57;10.20;84.20
64062;DHT22;50308;47.438;-1.528;2023-02-01T06:03:23;10.20;84.20
64062;DHT22;50308;47.438;-1.528;2023-02-01T06:05:49;10.20;84.20
64062;DHT22;50308;47.438;-1.528;2023-02-01T06:08:15;10.20;84.20
64062;DHT22;50308;47.438;-1.528;2023-02-01T06:10:42;10.20;84.10
64062;DHT22;50308;47.438;-1.528;2023-02-01T06:13:09;10.20;83.90
64062;DHT22;50308;47.438;-1.528;2023-02-01T06:15:35;10.20;84.00
64062;DHT22;50308;47.438;-1.528;2023-02-01T06:18:09;10.10;83.80
64062;DHT22;50308;47.438;-1.528;2023-02-01T06:20:41;10.20;83.90
64062;DHT22;50308;47.438;-1.528;2023-02-01T06:23:07;10.20;84.00
64062;DHT22;50308;47.438;-1.528;2023-02-01T06:25:32;10.20;83.50
64062;DHT22;50308;47.438;-1.528;2023-02-01T06:28:01;10.10;83.90
64062;DHT22;50308;47.438;-1.528;2023-02-01T06:30:27;10.20;84.10
64062;DHT22;50308;47.438;-1.528;2023-02-01T06:32:52;10.20;84.00
64062;DHT22;50308;47.438;-1.528;2023-02-01T06:35:19;10.20;83.60
64062;DHT22;50308;47.438;-1.528;2023-02-01T06:37:44;10.20;83.70
64062;DHT22;50308;47.438;-1.528;2023-02-01T06:40:10;10.20;83.30
64062;DHT22;50308;47.438;-1.528;2023-02-01T06:42:36;10.20;83.50
64062;DHT22;50308;47.438;-1.528;2023-02-01T06:45:02;10.20;83.60
64062;DHT22;50308;47.438;-1.528;2023-02-01T06:47:28;10.20;84.40
64062;DHT22;50308;47.438;-1.528;2023-02-01T06:49:54;10.20;83.70
64062;DHT22;50308;47.438;-1.528;2023-02-01T06:52:20;10.20;83.30
64062;DHT22;50308;47.438;-1.528;2023-02-01T06:54:45;10.20;83.60
64062;DHT22;50308;47.438;-1.528;2023-02-01T06:57:11;10.20;83.30
64062;DHT22;50308;47.438;-1.528;2023-02-01T06:59:36;10.20;83.10
64062;DHT22;50308;47.438;-1.528;2023-02-01T07:02:02;10.20;84.10
64062;DHT22;50308;47.438;-1.528;2023-02-01T07:04:28;10.20;83.70
64062;DHT22;50308;47.438;-1.528;2023-02-01T07:06:53;10.20;83.10
64062;DHT22;50308;47.438;-1.528;2023-02-01T07:09:19;10.20;83.30
64062;DHT22;50308;47.438;-1.528;2023-02-01T07:11:45;10.30;83.80
64062;DHT22;50308;47.438;-1.528;2023-02-01T07:14:14;10.20;83.60
64062;DHT22;50308;47.438;-1.528;2023-02-01T07:16:40;10.30;83.30
64062;DHT22;50308;47.438;-1.528;2023-02-01T07:19:09;10.20;83.50
64062;DHT22;50308;47.438;-1.528;2023-02-01T07:21:34;10.20;82.90
64062;DHT22;50308;47.438;-1.528;2023-02-01T07:24:00;10.20;82.80
64062;DHT22;50308;47.438;-1.528;2023-02-01T07:26:25;10.20;83.30
64062;DHT22;50308;47.438;-1.528;2023-02-01T07:28:51;10.20;83.30
64062;DHT22;50308;47.438;-1.528;2023-02-01T07:31:18;10.20;82.80
64062;DHT22;50308;47.438;-1.528;2023-02-01T07:33:46;10.20;83.10
64062;DHT22;50308;47.438;-1.528;2023-02-01T07:36:12;10.20;82.90
64062;DHT22;50308;47.438;-1.528;2023-02-01T07:38:38;10.20;83.50
64062;DHT22;50308;47.438;-1.528;2023-02-01T07:41:11;10.20;82.70
64062;DHT22;50308;47.438;-1.528;2023-02-01T07:43:38;10.20;82.90
64062;DHT22;50308;47.438;-1.528;2023-02-01T07:46:05;10.20;82.90
64062;DHT22;50308;47.438;-1.528;2023-02-01T07:48:31;10.20;82.90
64062;DHT22;50308;47.438;-1.528;2023-02-01T07:50:59;10.20;82.80
64062;DHT22;50308;47.438;-1.528;2023-02-01T07:53:25;10.20;83.40
64062;DHT22;50308;47.438;-1.528;2023-02-01T07:55:51;10.20;82.80
64062;DHT22;50308;47.438;-1.528;2023-02-01T07:58:16;10.20;82.70
64062;DHT22;50308;47.438;-1.528;2023-02-01T08:00:42;10.20;83.20
64062;DHT22;50308;47.438;-1.528;2023-02-01T08:03:27;10.20;83.40
64062;DHT22;50308;47.438;-1.528;2023-02-01T08:05:55;10.30;83.10
64062;DHT22;50308;47.438;-1.528;2023-02-01T08:08:21;10.20;83.10
64062;DHT22;50308;47.438;-1.528;2023-02-01T08:10:47;10.20;82.90
64062;DHT22;50308;47.438;-1.528;2023-02-01T08:13:12;10.20;82.70
64062;DHT22;50308;47.438;-1.528;2023-02-01T08:15:38;10.20;83.30
64062;DHT22;50308;47.438;-1.528;2023-02-01T08:18:04;10.20;82.60
64062;DHT22;50308;47.438;-1.528;2023-02-01T08:20:29;10.20;83.40
64062;DHT22;50308;47.438;-1.528;2023-02-01T08:22:55;10.20;83.20
64062;DHT22;50308;47.438;-1.528;2023-02-01T08:25:21;10.30;83.40
64062;DHT22;50308;47.438;-1.528;2023-02-01T08:27:47;10.30;83.30
64062;DHT22;50308;47.438;-1.528;2023-02-01T08:30:12;10.30;83.50
64062;DHT22;50308;47.438;-1.528;2023-02-01T08:32:38;10.30;84.40
64062;DHT22;50308;47.438;-1.528;2023-02-01T08:35:04;10.30;82.90
64062;DHT22;50308;47.438;-1.528;2023-02-01T08:37:30;10.30;83.40
64062;DHT22;50308;47.438;-1.528;2023-02-01T08:39:55;10.30;83.20
64062;DHT22;50308;47.438;-1.528;2023-02-01T08:42:21;10.30;83.00
64062;DHT22;50308;47.438;-1.528;2023-02-01T08:45:06;10.30;83.20
64062;DHT22;50308;47.438;-1.528;2023-02-01T08:47:33;10.30;82.70
64062;DHT22;50308;47.438;-1.528;2023-02-01T08:49:58;10.30;83.10
64062;DHT22;50308;47.438;-1.528;2023-02-01T08:52:24;10.30;83.10
64062;DHT22;50308;47.438;-1.528;2023-02-01T08:54:49;10.30;82.50
64062;DHT22;50308;47.438;-1.528;2023-02-01T08:57:15;10.30;83.40
64062;DHT22;50308;47.438;-1.528;2023-02-01T08:59:41;10.30;83.00
64062;DHT22;50308;47.438;-1.528;2023-02-01T09:02:08;10.30;83.20
64062;DHT22;50308;47.438;-1.528;2023-02-01T09:04:38;10.30;83.10
64062;DHT22;50308;47.438;-1.528;2023-02-01T09:07:04;10.30;83.30
64062;DHT22;50308;47.438;-1.528;2023-02-01T09:09:29;10.30;83.30
64062;DHT22;50308;47.438;-1.528;2023-02-01T09:11:55;10.30;83.20
64062;DHT22;50308;47.438;-1.528;2023-02-01T09:14:20;10.30;84.10
64062;DHT22;50308;47.438;-1.528;2023-02-01T09:16:46;10.30;83.20
64062;DHT22;50308;47.438;-1.528;2023-02-01T09:19:11;10.40;83.20
64062;DHT22;50308;47.438;-1.528;2023-02-01T09:21:37;10.30;83.20
64062;DHT22;50308;47.438;-1.528;2023-02-01T09:24:02;10.30;83.00
64062;DHT22;50308;47.438;-1.528;2023-02-01T09:26:29;10.40;83.20
64062;DHT22;50308;47.438;-1.528;2023-02-01T09:28:55;10.40;83.30
64062;DHT22;50308;47.438;-1.528;2023-02-01T09:31:20;10.40;83.00
64062;DHT22;50308;47.438;-1.528;2023-02-01T09:33:46;10.40;83.20
64062;DHT22;50308;47.438;-1.528;2023-02-01T09:36:14;10.40;83.10
64062;DHT22;50308;47.438;-1.528;2023-02-01T09:38:43;10.40;83.20
64062;DHT22;50308;47.438;-1.528;2023-02-01T09:41:22;10.40;82.90
64062;DHT22;50308;47.438;-1.528;2023-02-01T09:44:03;10.40;82.90
64062;DHT22;50308;47.438;-1.528;2023-02-01T09:46:34;10.40;83.00
64062;DHT22;50308;47.438;-1.528;2023-02-01T09:49:01;10.40;83.10
64062;DHT22;50308;47.438;-1.528;2023-02-01T09:51:36;10.50;83.10
64062;DHT22;50308;47.438;-1.528;2023-02-01T09:54:04;10.50;82.80
64062;DHT22;50308;47.438;-1.528;2023-02-01T10:02:11;10.60;82.90
64062;DHT22;50308;47.438;-1.528;2023-02-01T10:04:40;10.50;82.60
64062;DHT22;50308;47.438;-1.528;2023-02-01T10:09:47;10.60;82.20
64062;DHT22;50308;47.438;-1.528;2023-02-01T10:20:12;10.60;82.00
64062;DHT22;50308;47.438;-1.528;2023-02-01T10:23:42;10.60;82.20
64062;DHT22;50308;47.438;-1.528;2023-02-01T10:25:53;10.60;81.30
64062;DHT22;50308;47.438;-1.528;2023-02-01T10:28:19;10.60;82.10
64062;DHT22;50308;47.438;-1.528;2023-02-01T10:30:47;10.60;82.00
64062;DHT22;50308;47.438;-1.528;2023-02-01T10:33:18;10.60;81.90
64062;DHT22;50308;47.438;-1.528;2023-02-01T10:35:44;10.60;81.40
64062;DHT22;50308;47.438;-1.528;2023-02-01T10:38:29;10.60;81.60
64062;DHT22;50308;47.438;-1.528;2023-02-01T10:40:57;10.60;80.90
64062;DHT22;50308;47.438;-1.528;2023-02-01T10:43:26;10.60;81.30
64062;DHT22;50308;47.438;-1.528;2023-02-01T10:45:51;10.70;81.30
64062;DHT22;50308;47.438;-1.528;2023-02-01T10:48:17;10.70;81.70
64062;DHT22;50308;47.438;-1.528;2023-02-01T10:55:46;10.70;81.20
64062;DHT22;50308;47.438;-1.528;2023-02-01T11:03:22;10.70;81.00
64062;DHT22;50308;47.438;-1.528;2023-02-01T11:05:55;10.70;81.00
64062;DHT22;50308;47.438;-1.528;2023-02-01T11:08:20;10.70;80.90
64062;DHT22;50308;47.438;-1.528;2023-02-01T11:10:46;10.70;81.00
64062;DHT22;50308;47.438;-1.528;2023-02-01T11:13:13;10.70;81.10
64062;DHT22;50308;47.438;-1.528;2023-02-01T11:15:44;10.80;80.80
64062;DHT22;50308;47.438;-1.528;2023-02-01T11:18:15;10.80;80.80
64062;DHT22;50308;47.438;-1.528;2023-02-01T11:20:41;10.70;81.00
64062;DHT22;50308;47.438;-1.528;2023-02-01T11:23:14;10.70;80.80
64062;DHT22;50308;47.438;-1.528;2023-02-01T11:25:40;10.70;80.90
64062;DHT22;50308;47.438;-1.528;2023-02-01T11:28:12;10.80;80.80
64062;DHT22;50308;47.438;-1.528;2023-02-01T11:30:40;10.80;80.80
64062;DHT22;50308;47.438;-1.528;2023-02-01T11:33:06;10.80;80.00
64062;DHT22;50308;47.438;-1.528;2023-02-01T11:35:37;10.80;80.60
64062;DHT22;50308;47.438;-1.528;2023-02-01T11:38:09;10.80;80.40
64062;DHT22;50308;47.438;-1.528;2023-02-01T11:40:36;10.80;80.60
64062;DHT22;50308;47.438;-1.528;2023-02-01T11:46:00;10.80;80.30
64062;DHT22;50308;47.438;-1.528;2023-02-01T11:48:28;10.80;80.20
64062;DHT22;50308;47.438;-1.528;2023-02-01T11:53:31;10.80;80.30
64062;DHT22;50308;47.438;-1.528;2023-02-01T12:16:54;10.90;79.80
64062;DHT22;50308;47.438;-1.528;2023-02-01T12:37:04;10.90;79.80
64062;DHT22;50308;47.438;-1.528;2023-02-01T12:47:44;10.90;79.60
64062;DHT22;50308;47.438;-1.528;2023-02-01T12:50:24;10.90;80.80
64062;DHT22;50308;47.438;-1.528;2023-02-01T12:52:54;10.90;80.50
64062;DHT22;50308;47.438;-1.528;2023-02-01T12:55:34;10.90;79.90
64062;DHT22;50308;47.438;-1.528;2023-02-01T12:58:06;10.90;81.10
64062;DHT22;50308;47.438;-1.528;2023-02-01T13:00:38;11.00;79.80
64062;DHT22;50308;47.438;-1.528;2023-02-01T13:03:07;11.00;80.40
64062;DHT22;50308;47.438;-1.528;2023-02-01T13:08:10;11.00;78.90
64062;DHT22;50308;47.438;-1.528;2023-02-01T13:15:54;11.00;80.20
64062;DHT22;50308;47.438;-1.528;2023-02-01T13:18:21;11.00;79.80
64062;DHT22;50308;47.438;-1.528;2023-02-01T13:21:07;11.00;80.10
64062;DHT22;50308;47.438;-1.528;2023-02-01T13:23:37;11.00;80.50
64062;DHT22;50308;47.438;-1.528;2023-02-01T13:26:03;11.00;79.50
64062;DHT22;50308;47.438;-1.528;2023-02-01T13:28:42;11.00;79.60
64062;DHT22;50308;47.438;-1.528;2023-02-01T13:36:26;11.00;79.00
64062;DHT22;50308;47.438;-1.528;2023-02-01T13:41:50;11.10;80.10
64062;DHT22;50308;47.438;-1.528;2023-02-01T13:44:19;11.00;80.20
64062;DHT22;50308;47.438;-1.528;2023-02-01T13:46:48;11.00;79.40
64062;DHT22;50308;47.438;-1.528;2023-02-01T13:49:18;11.00;79.90
64062;DHT22;50308;47.438;-1.528;2023-02-01T13:51:45;11.00;80.70
64062;DHT22;50308;47.438;-1.528;2023-02-01T13:57:25;11.10;79.60
64062;DHT22;50308;47.438;-1.528;2023-02-01T13:59:53;11.00;79.50
64062;DHT22;50308;47.438;-1.528;2023-02-01T14:05:09;11.10;79.60
64062;DHT22;50308;47.438;-1.528;2023-02-01T14:07:34;11.00;79.60
64062;DHT22;50308;47.438;-1.528;2023-02-01T14:12:46;11.10;78.20
64062;DHT22;50308;47.438;-1.528;2023-02-01T14:17:44;11.10;79.40
64062;DHT22;50308;47.438;-1.528;2023-02-01T14:23:00;11.10;79.60
64062;DHT22;50308;47.438;-1.528;2023-02-01T14:25:31;11.00;79.80
64062;DHT22;50308;47.438;-1.528;2023-02-01T14:30:22;11.00;79.10
64062;DHT22;50308;47.438;-1.528;2023-02-01T14:32:48;11.00;81.40
64062;DHT22;50308;47.438;-1.528;2023-02-01T14:35:21;11.10;79.10
64062;DHT22;50308;47.438;-1.528;2023-02-01T14:37:53;11.10;79.20
64062;DHT22;50308;47.438;-1.528;2023-02-01T14:42:45;11.10;79.10
64062;DHT22;50308;47.438;-1.528;2023-02-01T14:47:44;11.10;79.50
64062;DHT22;50308;47.438;-1.528;2023-02-01T14:57:57;11.10;79.20
64062;DHT22;50308;47.438;-1.528;2023-02-01T15:00:27;11.10;79.50
64062;DHT22;50308;47.438;-1.528;2023-02-01T15:02:54;11.10;80.10
64062;DHT22;50308;47.438;-1.528;2023-02-01T15:05:38;11.10;80.50
64062;DHT22;50308;47.438;-1.528;2023-02-01T15:08:25;11.10;80.00
64062;DHT22;50308;47.438;-1.528;2023-02-01T15:10:49;11.10;79.60
64062;DHT22;50308;47.438;-1.528;2023-02-01T15:13:23;11.00;79.40
64062;DHT22;50308;47.438;-1.528;2023-02-01T15:15:59;11.10;80.00
64062;DHT22;50308;47.438;-1.528;2023-02-01T15:18:25;11.10;80.70
64062;DHT22;50308;47.438;-1.528;2023-02-01T15:20:57;11.10;80.10
64062;DHT22;50308;47.438;-1.528;2023-02-01T15:23:23;11.10;79.70
64062;DHT22;50308;47.438;-1.528;2023-02-01T15:25:49;11.10;79.60
64062;DHT22;50308;47.438;-1.528;2023-02-01T15:28:15;11.10;79.90
64062;DHT22;50308;47.438;-1.528;2023-02-01T15:30:51;11.10;80.00
64062;DHT22;50308;47.438;-1.528;2023-02-01T15:33:18;11.10;80.20
64062;DHT22;50308;47.438;-1.528;2023-02-01T15:35:45;11.10;79.80
64062;DHT22;50308;47.438;-1.528;2023-02-01T15:40:56;11.10;79.80
64062;DHT22;50308;47.438;-1.528;2023-02-01T15:43:23;11.10;79.60
64062;DHT22;50308;47.438;-1.528;2023-02-01T15:45:49;11.10;80.60
64062;DHT22;50308;47.438;-1.528;2023-02-01T15:48:22;11.10;80.90
64062;DHT22;50308;47.438;-1.528;2023-02-01T15:50:48;11.10;80.40
64062;DHT22;50308;47.438;-1.528;2023-02-01T15:53:19;11.10;80.30
64062;DHT22;50308;47.438;-1.528;2023-02-01T15:55:46;11.10;80.40
64062;DHT22;50308;47.438;-1.528;2023-02-01T15:58:20;11.10;80.00
64062;DHT22;50308;47.438;-1.528;2023-02-01T16:03:25;11.10;79.90
64062;DHT22;50308;47.438;-1.528;2023-02-01T16:05:56;11.10;79.70
64062;DHT22;50308;47.438;-1.528;2023-02-01T16:08:22;11.10;80.10
64062;DHT22;50308;47.438;-1.528;2023-02-01T16:10:49;11.10;79.00
64062;DHT22;50308;47.438;-1.528;2023-02-01T16:13:16;11.10;80.10
64062;DHT22;50308;47.438;-1.528;2023-02-01T16:15:42;11.10;80.20
64062;DHT22;50308;47.438;-1.528;2023-02-01T16:18:08;11.10;80.30
64062;DHT22;50308;47.438;-1.528;2023-02-01T16:20:38;11.10;79.00
64062;DHT22;50308;47.438;-1.528;2023-02-01T16:23:04;11.10;79.30
64062;DHT22;50308;47.438;-1.528;2023-02-01T16:25:30;11.10;80.00
64062;DHT22;50308;47.438;-1.528;2023-02-01T16:27:55;11.10;80.10
64062;DHT22;50308;47.438;-1.528;2023-02-01T16:30:21;11.10;80.20
64062;DHT22;50308;47.438;-1.528;2023-02-01T16:32:49;11.10;80.40
64062;DHT22;50308;47.438;-1.528;2023-02-01T16:35:21;11.10;79.60
64062;DHT22;50308;47.438;-1.528;2023-02-01T16:37:48;11.10;79.50
64062;DHT22;50308;47.438;-1.528;2023-02-01T16:40:16;11.10;79.20
64062;DHT22;50308;47.438;-1.528;2023-02-01T16:42:42;11.10;79.00
64062;DHT22;50308;47.438;-1.528;2023-02-01T16:45:08;11.10;79.40
64062;DHT22;50308;47.438;-1.528;2023-02-01T16:47:36;11.10;78.90
64062;DHT22;50308;47.438;-1.528;2023-02-01T16:50:01;11.10;78.00
64062;DHT22;50308;47.438;-1.528;2023-02-01T16:52:27;11.10;79.80
64062;DHT22;50308;47.438;-1.528;2023-02-01T16:54:53;11.10;79.20
64062;DHT22;50308;47.438;-1.528;2023-02-01T16:57:19;11.10;78.00
64062;DHT22;50308;47.438;-1.528;2023-02-01T16:59:47;11.10;78.90
64062;DHT22;50308;47.438;-1.528;2023-02-01T17:02:17;11.10;78.40
64062;DHT22;50308;47.438;-1.528;2023-02-01T17:04:44;11.10;77.70
64062;DHT22;50308;47.438;-1.528;2023-02-01T17:07:17;11.10;77.30
64062;DHT22;50308;47.438;-1.528;2023-02-01T17:09:44;11.10;77.30
64062;DHT22;50308;47.438;-1.528;2023-02-01T17:12:43;11.10;78.50
64062;DHT22;50308;47.438;-1.528;2023-02-01T17:15:01;11.10;78.10
64062;DHT22;50308;47.438;-1.528;2023-02-01T17:17:33;11.10;77.40
64062;DHT22;50308;47.438;-1.528;2023-02-01T17:19:58;11.10;77.30
64062;DHT22;50308;47.438;-1.528;2023-02-01T17:22:24;11.10;78.70
64062;DHT22;50308;47.438;-1.528;2023-02-01T17:24:50;11.10;78.00
64062;DHT22;50308;47.438;-1.528;2023-02-01T17:27:16;11.10;78.40
64062;DHT22;50308;47.438;-1.528;2023-02-01T17:29:42;11.10;77.90
64062;DHT22;50308;47.438;-1.528;2023-02-01T17:32:15;11.10;78.60
64062;DHT22;50308;47.438;-1.528;2023-02-01T17:34:41;11.10;78.70
64062;DHT22;50308;47.438;-1.528;2023-02-01T17:37:22;11.10;79.20
64062;DHT22;50308;47.438;-1.528;2023-02-01T17:39:48;11.10;77.70
64062;DHT22;50308;47.438;-1.528;2023-02-01T17:42:20;11.10;78.50
64062;DHT22;50308;47.438;-1.528;2023-02-01T17:44:46;11.10;78.30
64062;DHT22;50308;47.438;-1.528;2023-02-01T17:47:11;11.10;78.40
64062;DHT22;50308;47.438;-1.528;2023-02-01T17:49:37;11.00;78.20